Terminal Aerodrome Forecast
Issued by NWS Albuquerque, NM

Home | Current Version | Previous Version | Text Only | Print | Product List | Glossary On
Versions: 1 2 3 4 5 6 7 8 9 10 11 12 13 14 15 16 17 18
000
FTUS45 KABQ 080303 AAB
TAFABQ
TAF AMD
KABQ 080303Z 0803/0824 09015KT P6SM VCTS SCT060CB BKN120
      TEMPO 0803/0806 VRB20G30KT 3SM TSRA BKN040CB
     FM080600 11010KT P6SM BKN110
     FM080900 VRB05KT P6SM SCT120
     FM082100 25011G20KT P6SM VCSH SCT080 BKN120=

USA.gov is the U.S. government's official web portal to all federal, state and local government web resources and services.